Time;durP1;ratioP1;P1;durP2;ratioP2;P2;SDS_P1;SDS_P2;PMS_P1;PMS_P2;Temp;Humidity;BMP_temperature;BMP_pressure;BME280_temperature;BME280_humidity;BME280_pressure;Samples;Min_cycle;Max_cycle;Signal;HPM_P1;HPM_P2
2024/02/11 00:01:37;;;;;;;41.50;31.70;;;;;;;8.18;100.00;96799.27;109426;1253;58973;-70
2024/02/11 00:04:04;;;;;;;44.00;31.10;;;;;;;8.17;100.00;96794.56;109263;1253;59244;-72
2024/02/11 00:06:31;;;;;;;41.90;32.40;;;;;;;8.17;100.00;96794.38;109413;1253;67222;-73
2024/02/11 00:08:57;;;;;;;44.00;33.00;;;;;;;8.17;100.00;96796.15;109466;1253;61036;-72
2024/02/11 00:11:24;;;;;;;47.00;34.10;;;;;;;8.16;100.00;96794.46;109443;1252;65078;-72
2024/02/11 00:13:51;;;;;;;47.70;34.60;;;;;;;8.15;100.00;96791.56;109421;1253;59082;-73
2024/02/11 00:16:18;;;;;;;47.70;34.60;;;;;;;8.14;100.00;96786.32;109429;1253;58877;-72
2024/02/11 00:18:45;;;;;;;50.10;36.20;;;;;;;8.14;100.00;96784.20;109246;1253;66747;-72
2024/02/11 00:21:13;;;;;;;50.50;36.80;;;;;;;8.15;100.00;96783.41;109438;1253;60063;-72
2024/02/11 00:23:44;;;;;;;48.70;37.30;;;;;;;8.15;100.00;96784.97;109442;1253;65279;-73
2024/02/11 00:26:11;;;;;;;46.20;34.90;;;;;;;8.16;100.00;96787.43;109409;1253;59053;-73
2024/02/11 00:28:38;;;;;;;43.90;33.50;;;;;;;8.16;100.00;96784.55;109444;1253;59152;-73
2024/02/11 00:31:04;;;;;;;45.90;35.80;;;;;;;8.18;100.00;96780.65;109477;1253;65931;-73
2024/02/11 00:33:32;;;;;;;42.50;29.20;;;;;;;8.20;100.00;96777.52;109467;1253;61157;-72
2024/02/11 00:36:00;;;;;;;40.90;30.00;;;;;;;8.22;100.00;96779.03;109441;1253;65209;-73
2024/02/11 00:38:27;;;;;;;41.90;32.40;;;;;;;8.25;100.00;96783.58;109419;1252;59697;-71
2024/02/11 00:40:54;;;;;;;46.50;34.00;;;;;;;8.25;100.00;96783.35;109494;1253;59088;-72
2024/02/11 00:43:21;;;;;;;43.60;33.00;;;;;;;8.25;100.00;96785.34;109451;1253;66216;-72
2024/02/11 00:45:47;;;;;;;39.00;28.80;;;;;;;8.25;100.00;96783.15;109423;1253;60827;-74
2024/02/11 00:48:14;;;;;;;41.60;30.00;;;;;;;8.27;100.00;96786.39;109424;1253;64737;-72
2024/02/11 00:50:41;;;;;;;41.60;30.40;;;;;;;8.28;100.00;96783.48;109438;1252;59396;-72
2024/02/11 00:53:07;;;;;;;40.20;28.60;;;;;;;8.28;100.00;96780.46;109167;1253;59108;-71
2024/02/11 00:55:35;;;;;;;36.80;30.10;;;;;;;8.28;100.00;96779.02;109437;1253;66997;-71
2024/02/11 00:58:03;;;;;;;37.40;28.00;;;;;;;8.28;100.00;96780.67;109425;1253;61073;-71
2024/02/11 01:00:30;;;;;;;32.20;25.30;;;;;;;8.26;100.00;96782.95;109474;1253;64011;-72
2024/02/11 01:02:57;;;;;;;37.40;27.80;;;;;;;8.24;100.00;96784.52;109437;1252;59038;-70
2024/02/11 01:05:27;;;;;;;37.50;27.80;;;;;;;8.23;100.00;96786.20;109468;1253;58988;-72
2024/02/11 01:07:54;;;;;;;41.10;28.50;;;;;;;8.24;100.00;96787.23;109466;1256;65973;-71
2024/02/11 01:10:21;;;;;;;42.40;29.20;;;;;;;8.24;100.00;96785.27;109459;1253;60121;-72
2024/02/11 01:12:49;;;;;;;42.20;29.20;;;;;;;8.24;100.00;96788.46;109424;1253;64476;-71
2024/02/11 01:15:19;;;;;;;39.50;28.10;;;;;;;8.23;100.00;96785.73;109431;1253;59354;-71
2024/02/11 01:17:48;;;;;;;42.00;28.70;;;;;;;8.21;100.00;96782.85;109484;1252;58989;-72
2024/02/11 01:20:16;;;;;;;37.30;25.40;;;;;;;8.21;100.00;96782.68;109421;1253;67013;-72
2024/02/11 01:22:44;;;;;;;34.40;25.50;;;;;;;8.22;100.00;96779.58;109448;1252;60129;-73
2024/02/11 01:25:11;;;;;;;29.90;22.90;;;;;;;8.23;100.00;96782.54;109460;1253;65211;-72
2024/02/11 01:27:38;;;;;;;32.80;23.50;;;;;;;8.23;100.00;96778.77;109427;1252;59821;-71
2024/02/11 01:30:25;;;;;;;26.40;20.90;;;;;;;8.25;100.00;96777.04;109293;1252;59005;-72
2024/02/11 01:32:54;;;;;;;29.70;22.80;;;;;;;8.26;100.00;96776.91;109311;1257;67063;-71
2024/02/11 01:35:20;;;;;;;33.20;23.40;;;;;;;8.27;100.00;96777.02;109328;1254;61087;-72
2024/02/11 01:37:48;;;;;;;34.80;22.30;;;;;;;8.28;100.00;96774.92;109322;1254;65354;-71
2024/02/11 01:40:17;;;;;;;31.70;23.40;;;;;;;8.28;100.00;96771.21;109309;1253;59060;-72
2024/02/11 01:42:45;;;;;;;26.80;21.50;;;;;;;8.28;100.00;96768.92;108999;1257;59291;-72
2024/02/11 01:45:14;;;;;;;29.10;20.40;;;;;;;8.28;100.00;96769.45;109011;1258;67280;-71
2024/02/11 01:47:44;;;;;;;30.40;20.40;;;;;;;8.28;100.00;96767.23;108949;1258;61223;-71
2024/02/11 01:50:15;;;;;;;26.00;20.00;;;;;;;8.28;100.00;96766.11;108934;1257;64050;-70
2024/02/11 01:52:42;;;;;;;27.80;20.50;;;;;;;8.29;100.00;96766.91;109019;1257;59039;-71
2024/02/11 01:55:10;;;;;;;30.00;21.20;;;;;;;8.28;100.00;96766.25;109019;1257;59377;-71
2024/02/11 01:57:38;;;;;;;29.10;21.20;;;;;;;8.28;100.00;96764.35;109006;1257;65839;-70
2024/02/11 02:00:05;;;;;;;27.40;20.50;;;;;;;8.27;100.00;96761.81;109029;1257;61086;-72
2024/02/11 02:02:32;;;;;;;27.20;20.20;;;;;;;8.26;100.00;96758.01;109005;1257;63790;-72
2024/02/11 02:04:59;;;;;;;26.70;21.40;;;;;;;8.25;100.00;96759.16;109079;1255;59013;-71
2024/02/11 02:07:26;;;;;;;26.60;20.20;;;;;;;8.24;100.00;96756.60;108914;1255;59063;-72
2024/02/11 02:09:54;;;;;;;29.80;20.70;;;;;;;8.23;100.00;96757.08;109130;1255;65938;-71
2024/02/11 02:12:21;;;;;;;32.00;21.30;;;;;;;8.22;100.00;96758.73;109008;1255;61044;-71
2024/02/11 02:14:50;;;;;;;33.60;20.80;;;;;;;8.22;100.00;96754.50;109392;1253;65151;-71
2024/02/11 02:17:17;;;;;;;31.50;21.10;;;;;;;8.22;100.00;96748.33;109266;1253;59638;-71
2024/02/11 02:19:44;;;;;;;31.90;20.70;;;;;;;8.21;100.00;96744.16;109394;1254;59350;-73
2024/02/11 02:22:11;;;;;;;27.30;21.70;;;;;;;8.21;100.00;96743.64;109436;1253;67006;-70
2024/02/11 02:24:37;;;;;;;29.40;20.10;;;;;;;8.20;100.00;96737.47;109465;1252;59817;-71
2024/02/11 02:27:05;;;;;;;30.30;22.00;;;;;;;8.19;100.00;96740.20;109453;1252;65023;-71
2024/02/11 02:29:33;;;;;;;26.50;20.20;;;;;;;8.19;100.00;96739.71;109435;1253;59015;-72
2024/02/11 02:31:59;;;;;;;28.20;22.00;;;;;;;8.19;100.00;96743.77;109462;1252;58928;-73
2024/02/11 02:34:27;;;;;;;28.00;22.90;;;;;;;8.18;100.00;96739.31;109489;1252;67047;-72
2024/02/11 02:36:54;;;;;;;28.80;22.30;;;;;;;8.16;100.00;96737.89;109456;1253;61136;-72
2024/02/11 02:39:22;;;;;;;29.90;22.00;;;;;;;8.14;100.00;96733.23;109450;1252;65069;-71
2024/02/11 02:41:49;;;;;;;31.30;23.40;;;;;;;8.12;100.00;96730.59;109264;1253;59059;-72
2024/02/11 02:44:16;;;;;;;32.80;24.70;;;;;;;8.10;100.00;96733.79;109463;1252;59238;-73
2024/02/11 02:46:42;;;;;;;29.40;23.40;;;;;;;8.09;100.00;96730.38;109443;1252;67116;-73
2024/02/11 02:49:09;;;;;;;29.30;23.80;;;;;;;8.07;100.00;96724.38;109437;1252;61406;-72
2024/02/11 02:51:35;;;;;;;28.50;23.70;;;;;;;8.06;100.00;96721.30;109426;1252;64190;-72
2024/02/11 02:54:03;;;;;;;33.50;24.50;;;;;;;8.05;100.00;96722.44;109430;1252;59038;-73
2024/02/11 02:56:32;;;;;;;34.10;24.80;;;;;;;8.04;100.00;96716.52;109443;1252;59245;-72
2024/02/11 02:58:58;;;;;;;34.70;23.00;;;;;;;8.02;100.00;96714.02;109443;1252;67110;-73
2024/02/11 03:01:26;;;;;;;32.30;23.60;;;;;;;8.02;100.00;96709.30;109458;1253;61095;-72
2024/02/11 03:03:54;;;;;;;35.90;23.70;;;;;;;8.01;100.00;96709.36;109238;1252;64535;-72
2024/02/11 03:06:20;;;;;;;34.30;24.60;;;;;;;8.00;100.00;96714.55;109445;1253;58983;-72
2024/02/11 03:08:47;;;;;;;30.50;23.30;;;;;;;8.00;100.00;96707.15;109411;1253;58962;-71
2024/02/11 03:11:14;;;;;;;29.90;22.80;;;;;;;7.99;100.00;96703.69;109479;1253;66365;-72
2024/02/11 03:13:43;;;;;;;31.60;23.00;;;;;;;7.99;100.00;96707.48;109452;1252;60241;-72
2024/02/11 03:16:10;;;;;;;28.50;22.10;;;;;;;7.98;100.00;96708.05;109423;1253;65362;-73
2024/02/11 03:18:40;;;;;;;30.10;22.80;;;;;;;7.98;100.00;96709.88;109394;1253;59032;-71
2024/02/11 03:21:07;;;;;;;32.90;24.10;;;;;;;7.97;100.00;96706.58;109469;1252;59012;-71
2024/02/11 03:23:35;;;;;;;30.60;24.40;;;;;;;7.96;100.00;96704.02;109449;1252;65903;-72
2024/02/11 03:26:02;;;;;;;33.90;24.20;;;;;;;7.96;100.00;96699.60;109464;1253;60781;-72
2024/02/11 03:28:29;;;;;;;27.80;21.90;;;;;;;7.96;100.00;96703.86;109445;1252;65084;-72
2024/02/11 03:30:57;;;;;;;31.90;23.40;;;;;;;7.95;100.00;96700.73;109459;1253;59193;-72
2024/02/11 03:33:24;;;;;;;25.90;23.10;;;;;;;7.94;100.00;96697.12;109447;1253;59029;-71
2024/02/11 03:35:50;;;;;;;29.30;22.00;;;;;;;7.94;100.00;96694.89;109492;1253;66071;-72
2024/02/11 03:38:18;;;;;;;31.50;23.90;;;;;;;7.92;100.00;96688.47;109472;1253;60152;-72
2024/02/11 03:40:45;;;;;;;30.80;23.60;;;;;;;7.91;100.00;96689.09;109397;1253;64117;-72
2024/02/11 03:43:13;;;;;;;28.60;22.30;;;;;;;7.90;100.00;96693.73;109429;1253;59201;-72
2024/02/11 03:45:39;;;;;;;31.50;24.20;;;;;;;7.91;100.00;96688.39;109429;1257;59015;-71
2024/02/11 03:48:07;;;;;;;31.20;23.30;;;;;;;7.91;100.00;96680.27;109472;1252;66022;-71
2024/02/11 03:50:33;;;;;;;31.10;23.40;;;;;;;7.90;100.00;96683.52;109458;1252;60841;-72
2024/02/11 03:53:01;;;;;;;30.00;23.80;;;;;;;7.90;100.00;96681.45;109407;1252;65305;-73
2024/02/11 03:55:29;;;;;;;31.20;23.60;;;;;;;7.89;100.00;96681.36;109462;1252;59000;-72
2024/02/11 03:58:01;;;;;;;31.60;23.90;;;;;;;7.88;100.00;96676.25;109395;1252;58998;-72
2024/02/11 04:00:30;;;;;;;32.10;23.60;;;;;;;7.87;100.00;96675.66;109460;1252;67025;-72
2024/02/11 04:03:00;;;;;;;29.30;24.20;;;;;;;7.86;100.00;96674.89;109443;1252;61007;-72
2024/02/11 04:05:28;;;;;;;27.70;23.30;;;;;;;7.85;100.00;96670.55;109416;1252;64451;-71
2024/02/11 04:07:56;;;;;;;29.70;22.30;;;;;;;7.85;100.00;96672.16;109463;1252;58944;-71
2024/02/11 04:10:24;;;;;;;34.70;23.40;;;;;;;7.84;100.00;96668.70;109170;1252;59050;-72
2024/02/11 04:12:55;;;;;;;29.30;22.90;;;;;;;7.84;100.00;96669.20;109156;1252;67038;-72
2024/02/11 04:15:22;;;;;;;30.10;23.10;;;;;;;7.85;100.00;96663.51;109397;1253;60116;-72
2024/02/11 04:17:53;;;;;;;31.10;23.10;;;;;;;7.85;100.00;96664.15;109463;1253;64717;-72
2024/02/11 04:20:24;;;;;;;28.20;23.00;;;;;;;7.85;100.00;96662.05;109409;1252;59223;-72
2024/02/11 04:22:52;;;;;;;27.70;23.60;;;;;;;7.85;100.00;96664.87;109451;1252;59328;-72
2024/02/11 04:25:22;;;;;;;30.30;23.80;;;;;;;7.85;100.00;96660.47;109505;1252;67044;-70
2024/02/11 04:27:52;;;;;;;31.70;25.40;;;;;;;7.85;100.00;96660.66;109458;1252;60043;-71
2024/02/11 04:30:19;;;;;;;33.10;24.30;;;;;;;7.85;100.00;96657.79;109107;1252;65093;-72
2024/02/11 04:32:47;;;;;;;30.20;22.80;;;;;;;7.85;100.00;96655.33;109440;1253;59078;-71
2024/02/11 04:35:15;;;;;;;31.90;22.90;;;;;;;7.85;100.00;96650.55;109438;1252;59026;-71
2024/02/11 04:37:46;;;;;;;29.80;24.00;;;;;;;7.85;100.00;96646.14;109311;1254;66700;-71
2024/02/11 04:40:15;;;;;;;31.40;23.40;;;;;;;7.85;100.00;96649.09;109158;1252;61181;-72
2024/02/11 04:42:54;;;;;;;29.00;22.40;;;;;;;7.85;100.00;96647.90;109421;1253;65124;-72
2024/02/11 04:45:22;;;;;;;30.60;24.00;;;;;;;7.85;100.00;96647.34;109444;1254;59317;-72
2024/02/11 04:47:53;;;;;;;30.50;23.90;;;;;;;7.85;100.00;96642.40;109160;1254;59386;-72
2024/02/11 04:50:25;;;;;;;29.60;23.40;;;;;;;7.86;100.00;96639.52;109468;1253;66173;-70
2024/02/11 04:52:58;;;;;;;30.70;23.20;;;;;;;7.86;100.00;96642.20;109465;1252;60075;-71
2024/02/11 04:55:29;;;;;;;28.50;22.60;;;;;;;7.86;100.00;96638.59;109444;1252;64077;-71
2024/02/11 04:58:00;;;;;;;30.10;24.00;;;;;;;7.87;100.00;96636.97;109477;1252;59083;-72
2024/02/11 05:00:33;;;;;;;29.10;22.00;;;;;;;7.87;100.00;96631.98;109277;1254;59460;-71
2024/02/11 05:03:03;;;;;;;30.40;22.20;;;;;;;7.87;100.00;96628.45;109428;1253;66181;-71
2024/02/11 05:05:31;;;;;;;32.80;23.10;;;;;;;7.87;100.00;96627.23;109447;1253;59844;-71
2024/02/11 05:08:00;;;;;;;30.10;22.30;;;;;;;7.87;100.00;96630.97;109249;1254;62606;-71
2024/02/11 05:10:27;;;;;;;30.70;22.60;;;;;;;7.86;100.00;96626.57;109260;1254;59440;-71
2024/02/11 05:12:56;;;;;;;27.40;21.80;;;;;;;7.86;100.00;96626.23;109452;1253;58965;-72
2024/02/11 05:15:24;;;;;;;30.80;23.10;;;;;;;7.86;100.00;96624.34;109426;1254;66991;-72
2024/02/11 05:17:54;;;;;;;28.90;22.90;;;;;;;7.86;100.00;96621.52;109407;1254;59753;-72
2024/02/11 05:20:22;;;;;;;28.10;22.00;;;;;;;7.85;100.00;96618.90;109136;1252;64104;-70
2024/02/11 05:22:55;;;;;;;28.00;22.40;;;;;;;7.85;100.00;96620.02;109426;1253;58982;-71
2024/02/11 05:25:23;;;;;;;30.50;22.70;;;;;;;7.84;100.00;96617.96;109420;1255;59085;-72
2024/02/11 05:27:55;;;;;;;26.00;21.80;;;;;;;7.83;100.00;96617.38;109463;1253;67097;-73
2024/02/11 05:30:26;;;;;;;31.00;21.70;;;;;;;7.82;100.00;96611.27;109438;1253;61187;-79
2024/02/11 05:32:53;;;;;;;31.30;23.90;;;;;;;7.82;100.00;96606.87;109455;1254;62762;-73
2024/02/11 05:35:23;;;;;;;31.30;23.10;;;;;;;7.81;100.00;96604.67;109436;1253;58993;-72
2024/02/11 05:37:57;;;;;;;29.20;21.40;;;;;;;7.79;100.00;96598.63;109199;1253;59215;-72
2024/02/11 05:40:24;;;;;;;31.10;23.60;;;;;;;7.77;100.00;96594.95;109392;1256;75708;-73
2024/02/11 05:42:50;;;;;;;34.70;25.70;;;;;;;7.75;100.00;96593.86;109136;1254;61180;-73
2024/02/11 05:45:17;;;;;;;37.30;28.40;;;;;;;7.74;100.00;96597.59;109446;1253;64087;-72
2024/02/11 05:47:44;;;;;;;35.10;27.90;;;;;;;7.72;100.00;96599.85;109408;1253;59049;-75
2024/02/11 05:50:10;;;;;;;32.30;26.20;;;;;;;7.71;100.00;96598.70;109145;1254;59030;-71
2024/02/11 05:52:37;;;;;;;34.10;25.30;;;;;;;7.70;100.00;96598.42;109473;1253;67158;-72
2024/02/11 05:55:04;;;;;;;34.70;24.90;;;;;;;7.69;100.00;96598.52;109166;1253;61140;-72
2024/02/11 05:57:31;;;;;;;29.50;24.70;;;;;;;7.68;100.00;96592.39;109409;1253;65041;-72
2024/02/11 05:59:57;;;;;;;34.00;26.30;;;;;;;7.67;100.00;96596.38;109428;1253;60081;-72
2024/02/11 06:02:26;;;;;;;35.40;31.10;;;;;;;7.66;100.00;96599.45;109436;1253;59036;-71
2024/02/11 06:04:53;;;;;;;28.70;24.00;;;;;;;7.67;100.00;96592.73;109428;1253;66965;-71
2024/02/11 06:07:20;;;;;;;28.50;23.00;;;;;;;7.67;100.00;96595.86;109434;1253;60415;-72
2024/02/11 06:09:46;;;;;;;33.50;25.30;;;;;;;7.68;100.00;96597.23;109416;1252;63932;-71
2024/02/11 06:12:13;;;;;;;34.50;26.30;;;;;;;7.69;100.00;96596.77;109429;1253;59080;-72
2024/02/11 06:14:41;;;;;;;34.70;26.60;;;;;;;7.70;100.00;96596.77;109480;1253;59213;-71
2024/02/11 06:17:08;;;;;;;35.40;26.40;;;;;;;7.72;100.00;96599.48;109409;1253;67146;-72
2024/02/11 06:19:37;;;;;;;29.60;23.80;;;;;;;7.74;100.00;96604.61;109442;1253;61241;-71
2024/02/11 06:22:04;;;;;;;30.60;24.10;;;;;;;7.76;100.00;96604.43;109420;1253;65168;-72
2024/02/11 06:24:32;;;;;;;27.30;23.40;;;;;;;7.76;100.00;96605.27;109426;1253;59057;-72
2024/02/11 06:26:59;;;;;;;31.10;23.70;;;;;;;7.78;100.00;96606.23;109368;1253;59068;-72
2024/02/11 06:29:27;;;;;;;31.80;23.50;;;;;;;7.79;100.00;96609.79;109384;1252;64712;-72
2024/02/11 06:31:53;;;;;;;29.30;22.00;;;;;;;7.80;100.00;96605.45;109148;1254;60012;-72
2024/02/11 06:34:22;;;;;;;29.70;24.80;;;;;;;7.82;100.00;96607.22;109405;1253;64094;-72
2024/02/11 06:36:49;;;;;;;28.80;22.50;;;;;;;7.84;100.00;96611.61;109377;1254;59227;-71
2024/02/11 06:39:18;;;;;;;28.50;21.60;;;;;;;7.86;100.00;96612.41;109400;1254;58823;-71
2024/02/11 06:41:45;;;;;;;32.20;23.30;;;;;;;7.88;100.00;96612.41;109421;1253;67421;-73
2024/02/11 06:44:14;;;;;;;32.70;23.40;;;;;;;7.90;100.00;96613.33;109386;1254;60975;-73
2024/02/11 06:46:40;;;;;;;35.70;25.40;;;;;;;7.91;100.00;96611.81;109397;1254;64018;-73
2024/02/11 06:49:07;;;;;;;32.10;25.10;;;;;;;7.92;100.00;96609.27;109267;1253;59004;-72
2024/02/11 06:51:34;;;;;;;33.50;25.30;;;;;;;7.92;100.00;96608.02;109297;1253;59314;-72
2024/02/11 06:54:00;;;;;;;35.30;25.50;;;;;;;7.93;100.00;96608.34;109136;1254;65633;-71
2024/02/11 06:56:28;;;;;;;31.80;25.10;;;;;;;7.94;100.00;96607.90;109450;1253;60925;-71
2024/02/11 06:58:56;;;;;;;37.80;26.50;;;;;;;7.95;100.00;96612.14;109414;1253;65523;-71
2024/02/11 07:01:23;;;;;;;31.10;25.90;;;;;;;7.98;100.00;96613.66;109394;1253;59247;-71
2024/02/11 07:03:51;;;;;;;31.80;23.90;;;;;;;8.00;100.00;96617.67;109200;1253;59040;-71
2024/02/11 07:06:18;;;;;;;31.90;23.30;;;;;;;8.03;100.00;96617.41;109410;1254;65988;-71
2024/02/11 07:08:44;;;;;;;29.70;21.50;;;;;;;8.06;100.00;96615.23;109376;1253;60027;-71
2024/02/11 07:11:11;;;;;;;28.80;21.30;;;;;;;8.09;100.00;96608.73;109434;1253;64157;-72
2024/02/11 07:13:39;;;;;;;26.60;21.00;;;;;;;8.11;100.00;96608.17;109373;1253;59068;-70
2024/02/11 07:16:08;;;;;;;30.70;21.30;;;;;;;8.13;100.00;96607.63;109148;1253;58998;-70
2024/02/11 07:18:37;;;;;;;28.50;22.20;;;;;;;8.15;100.00;96609.34;109358;1253;66804;-71
2024/02/11 07:21:04;;;;;;;29.20;22.70;;;;;;;8.18;100.00;96610.90;109424;1253;61075;-71
2024/02/11 07:23:32;;;;;;;30.80;23.20;;;;;;;8.19;100.00;96611.98;109453;1254;65111;-71
2024/02/11 07:25:58;;;;;;;26.80;22.30;;;;;;;8.21;100.00;96611.63;109410;1253;58964;-71
2024/02/11 07:28:25;;;;;;;31.80;25.20;;;;;;;8.24;100.00;96612.11;109430;1253;59936;-73
2024/02/11 07:30:51;;;;;;;36.00;25.30;;;;;;;8.26;100.00;96613.66;109130;1253;67011;-70
2024/02/11 07:33:18;;;;;;;34.60;26.50;;;;;;;8.28;100.00;96612.09;109440;1254;60303;-71
2024/02/11 07:35:46;;;;;;;33.40;26.50;;;;;;;8.29;100.00;96614.94;109412;1253;64106;-71
2024/02/11 07:38:12;;;;;;;28.60;24.00;;;;;;;8.32;100.00;96616.23;109405;1253;59024;-73
2024/02/11 07:40:40;;;;;;;32.10;25.80;;;;;;;8.34;100.00;96620.10;109435;1253;59073;-70
2024/02/11 07:43:06;;;;;;;32.90;25.60;;;;;;;8.36;100.00;96620.12;109321;1254;67062;-71
2024/02/11 07:45:33;;;;;;;35.60;27.20;;;;;;;8.39;100.00;96624.98;109446;1253;60329;-71
2024/02/11 07:48:00;;;;;;;34.30;26.80;;;;;;;8.41;100.00;96624.95;109371;1254;65057;-71
2024/02/11 07:50:27;;;;;;;29.90;25.40;;;;;;;8.44;100.00;96625.56;109374;1253;59043;-70
2024/02/11 07:52:55;;;;;;;31.10;24.90;;;;;;;8.49;100.00;96627.34;109413;1253;58986;-74
2024/02/11 07:55:22;;;;;;;34.30;25.90;;;;;;;8.54;100.00;96628.61;109293;1254;65924;-71
2024/02/11 07:57:49;;;;;;;30.10;25.30;;;;;;;8.61;100.00;96627.15;109267;1254;61100;-71
2024/02/11 08:00:16;;;;;;;30.90;25.40;;;;;;;8.66;100.00;96631.45;109374;1253;64071;-70
2024/02/11 08:02:42;;;;;;;35.10;26.00;;;;;;;8.71;100.00;96637.09;109361;1253;58965;-71
2024/02/11 08:05:10;;;;;;;29.50;24.60;;;;;;;8.77;100.00;96637.73;109399;1253;58994;-70
2024/02/11 08:07:37;;;;;;;33.00;25.70;;;;;;;8.85;100.00;96635.61;109396;1254;67204;-70
2024/02/11 08:10:04;;;;;;;36.60;26.80;;;;;;;8.89;100.00;96631.30;109366;1253;60104;-71
2024/02/11 08:12:30;;;;;;;33.40;26.00;;;;;;;8.93;100.00;96626.43;109377;1253;65021;-72
2024/02/11 08:14:57;;;;;;;35.30;27.00;;;;;;;8.97;100.00;96623.55;109325;1254;59028;-71
2024/02/11 08:17:23;;;;;;;34.00;25.70;;;;;;;9.02;100.00;96617.95;109371;1253;58988;-71
2024/02/11 08:19:50;;;;;;;32.60;26.60;;;;;;;9.06;100.00;96614.23;109432;1253;67152;-71
2024/02/11 08:22:18;;;;;;;34.30;26.30;;;;;;;9.07;100.00;96613.59;109367;1253;60982;-72
2024/02/11 08:24:46;;;;;;;34.40;26.20;;;;;;;9.09;100.00;96611.94;109393;1253;65160;-71
2024/02/11 08:27:12;;;;;;;30.20;25.60;;;;;;;9.15;100.00;96611.23;109132;1253;59058;-71
2024/02/11 08:29:46;;;;;;;33.70;25.70;;;;;;;9.20;100.00;96614.99;109393;1253;58988;-70
2024/02/11 08:32:12;;;;;;;33.50;27.60;;;;;;;9.23;100.00;96614.09;109163;1253;67230;-72
2024/02/11 08:34:39;;;;;;;31.90;26.50;;;;;;;9.27;100.00;96613.79;109309;1253;59437;-70
2024/02/11 08:37:05;;;;;;;35.40;26.60;;;;;;;9.31;100.00;96611.54;109411;1253;64048;-71
2024/02/11 08:39:32;;;;;;;28.80;25.20;;;;;;;9.34;100.00;96614.42;109365;1253;59077;-71
2024/02/11 08:42:04;;;;;;;31.30;25.10;;;;;;;9.35;100.00;96615.35;109376;1253;59321;-70
2024/02/11 08:44:31;;;;;;;32.20;26.10;;;;;;;9.40;100.00;96618.29;109430;1252;65968;-70
2024/02/11 08:46:58;;;;;;;32.30;26.60;;;;;;;9.40;100.00;96621.28;109371;1252;60032;-73
2024/02/11 08:49:26;;;;;;;30.70;26.00;;;;;;;9.35;100.00;96618.95;109374;1253;65062;-72
2024/02/11 08:51:53;;;;;;;35.80;27.60;;;;;;;9.31;100.00;96618.35;109328;1253;59032;-73
2024/02/11 08:54:20;;;;;;;31.10;27.60;;;;;;;9.30;100.00;96618.17;109349;1253;58957;-71
2024/02/11 08:56:48;;;;;;;33.70;28.40;;;;;;;9.31;100.00;96615.77;109410;1253;65855;-71
2024/02/11 08:59:14;;;;;;;36.00;28.00;;;;;;;9.32;100.00;96616.79;109260;1252;60053;-72
2024/02/11 09:01:49;;;;;;;34.00;28.20;;;;;;;9.32;100.00;96616.45;109364;1252;64175;-70
2024/02/11 09:04:16;;;;;;;32.70;27.80;;;;;;;9.31;100.00;96617.71;109085;1253;59480;-70
2024/02/11 09:06:46;;;;;;;34.50;28.30;;;;;;;9.31;100.00;96616.71;109371;1253;59020;-71
2024/02/11 09:09:12;;;;;;;32.50;26.90;;;;;;;9.31;100.00;96613.02;109353;1253;65932;-69
2024/02/11 09:11:39;;;;;;;35.10;27.30;;;;;;;9.28;100.00;96612.00;109362;1253;60809;-70
2024/02/11 09:14:06;;;;;;;31.80;25.90;;;;;;;9.26;100.00;96611.32;109375;1252;65007;-70
2024/02/11 09:16:32;;;;;;;34.00;28.20;;;;;;;9.27;100.00;96609.67;109370;1253;59004;-70
2024/02/11 09:18:59;;;;;;;38.40;28.10;;;;;;;9.26;100.00;96608.67;109272;1252;59086;-73
2024/02/11 09:21:25;;;;;;;35.40;29.00;;;;;;;9.25;100.00;96609.35;109368;1253;66029;-69
2024/02/11 09:23:54;;;;;;;35.40;30.50;;;;;;;9.23;100.00;96610.08;109373;1252;62007;-70
2024/02/11 09:26:23;;;;;;;32.20;28.00;;;;;;;9.24;100.00;96612.44;109419;1252;64402;-70
2024/02/11 09:28:49;;;;;;;32.00;26.90;;;;;;;9.25;100.00;96611.48;109358;1252;59438;-72
2024/02/11 09:31:16;;;;;;;32.30;26.80;;;;;;;9.23;100.00;96609.84;109386;1252;59009;-71
2024/02/11 09:33:43;;;;;;;36.60;28.80;;;;;;;9.21;100.00;96608.96;109432;1252;65979;-71
2024/02/11 09:36:10;;;;;;;32.80;28.40;;;;;;;9.19;100.00;96610.80;109360;1253;60184;-71
2024/02/11 09:38:37;;;;;;;33.30;28.80;;;;;;;9.16;100.00;96608.28;109320;1252;65073;-71
2024/02/11 09:41:05;;;;;;;33.40;28.90;;;;;;;9.13;100.00;96606.63;109082;1253;59024;-71
2024/02/11 09:43:37;;;;;;;31.50;26.70;;;;;;;9.10;100.00;96605.84;109387;1252;59083;-71
2024/02/11 09:46:06;;;;;;;29.50;26.20;;;;;;;9.08;100.00;96603.73;109388;1252;64830;-71
2024/02/11 09:48:36;;;;;;;30.70;26.40;;;;;;;9.06;100.00;96602.05;109374;1252;61075;-71
2024/02/11 09:51:03;;;;;;;29.90;24.10;;;;;;;9.05;100.00;96597.36;109120;1252;65212;-71
2024/02/11 09:53:32;;;;;;;27.30;23.60;;;;;;;9.02;100.00;96598.63;109132;1252;59181;-70
2024/02/11 09:55:59;;;;;;;27.60;24.20;;;;;;;9.03;100.00;96599.86;109411;1252;58965;-71
2024/02/11 09:58:26;;;;;;;28.50;24.60;;;;;;;9.03;100.00;96599.45;109395;1257;65925;-72
2024/02/11 10:00:55;;;;;;;28.30;22.70;;;;;;;9.04;100.00;96602.87;109397;1252;59883;-71
2024/02/11 10:03:26;;;;;;;32.30;27.40;;;;;;;9.06;100.00;96603.75;109325;1252;65039;-70
2024/02/11 10:05:58;;;;;;;37.20;33.30;;;;;;;9.08;100.00;96604.13;109355;1253;59059;-70
2024/02/11 10:08:24;;;;;;;66.40;56.00;;;;;;;9.11;100.00;96608.98;109351;1252;58913;-70
2024/02/11 10:10:52;;;;;;;44.30;39.60;;;;;;;9.12;100.00;96609.34;109428;1252;67129;-71
2024/02/11 10:13:21;;;;;;;49.30;43.60;;;;;;;9.14;100.00;96613.02;109438;1252;61713;-71
2024/02/11 10:15:49;;;;;;;48.70;43.40;;;;;;;9.17;100.00;96610.63;109371;1253;65086;-71
2024/02/11 10:18:19;;;;;;;39.80;35.20;;;;;;;9.20;100.00;96611.74;109377;1251;59339;-70
2024/02/11 10:20:47;;;;;;;35.40;30.60;;;;;;;9.22;100.00;96611.43;109353;1252;59087;-71
2024/02/11 10:23:18;;;;;;;35.40;31.80;;;;;;;9.25;100.00;96610.05;109320;1252;67094;-71
2024/02/11 10:25:45;;;;;;;36.90;33.00;;;;;;;9.28;100.00;96607.93;109371;1253;60378;-71
2024/02/11 10:28:12;;;;;;;39.00;35.00;;;;;;;9.32;100.00;96607.70;109393;1252;62770;-72
2024/02/11 10:30:39;;;;;;;36.20;32.20;;;;;;;9.34;100.00;96608.41;109323;1253;60293;-72
2024/02/11 10:33:06;;;;;;;37.10;33.00;;;;;;;9.37;100.00;96606.04;109418;1252;59102;-71
2024/02/11 10:35:35;;;;;;;32.80;27.00;;;;;;;9.40;100.00;96604.30;109323;1252;66155;-71
2024/02/11 10:38:06;;;;;;;51.70;43.00;;;;;;;9.41;100.00;96601.48;109436;1252;60784;-71
2024/02/11 10:40:37;;;;;;;44.00;37.70;;;;;;;9.44;100.00;96597.64;109437;1252;65088;-71
2024/02/11 10:43:09;;;;;;;36.70;32.90;;;;;;;9.48;100.00;96596.34;109334;1252;60193;-72
2024/02/11 10:45:38;;;;;;;38.80;34.70;;;;;;;9.51;100.00;96592.92;109365;1253;59058;-71
2024/02/11 10:48:05;;;;;;;49.20;43.50;;;;;;;9.52;100.00;96597.20;109384;1252;67093;-71
2024/02/11 10:50:32;;;;;;;37.20;33.20;;;;;;;9.53;100.00;96591.44;109395;1252;61079;-73
2024/02/11 10:53:03;;;;;;;33.20;28.80;;;;;;;9.54;100.00;96591.58;109391;1252;65087;-71
2024/02/11 10:55:35;;;;;;;32.10;28.40;;;;;;;9.54;100.00;96592.55;109374;1252;59043;-71
2024/02/11 10:58:05;;;;;;;35.60;31.30;;;;;;;9.56;100.00;96590.83;109346;1252;58925;-72
2024/02/11 11:00:34;;;;;;;35.30;29.50;;;;;;;9.56;100.00;96589.77;109426;1252;66055;-71
2024/02/11 11:03:07;;;;;;;36.10;29.10;;;;;;;9.55;100.00;96587.15;109404;1253;61092;-71
2024/02/11 11:05:38;;;;;;;33.60;29.10;;;;;;;9.56;100.00;96582.79;109378;1252;64020;-73
2024/02/11 11:08:07;;;;;;;38.20;34.10;;;;;;;9.59;100.00;96585.52;109356;1252;59023;-70
2024/02/11 11:10:35;;;;;;;36.20;32.10;;;;;;;9.63;100.00;96584.72;109370;1252;59307;-71
2024/02/11 11:13:02;;;;;;;31.00;26.30;;;;;;;9.67;100.00;96584.82;109361;1252;66094;-70